sensor_id;sensor_type;location;lat;lon;timestamp;P1;durP1;ratioP1;P2;durP2;ratioP2
2021;SDS011;1015;49.756;6.994;2023-11-19T00:00:38;0.40;;;0.37;;
2021;SDS011;1015;49.756;6.994;2023-11-19T00:03:05;0.40;;;0.40;;
2021;SDS011;1015;49.756;6.994;2023-11-19T00:05:33;1.40;;;0.50;;
2021;SDS011;1015;49.756;6.994;2023-11-19T00:08:00;0.70;;;0.53;;
2021;SDS011;1015;49.756;6.994;2023-11-19T00:10:27;1.03;;;0.40;;
2021;SDS011;1015;49.756;6.994;2023-11-19T00:12:56;0.50;;;0.50;;
2021;SDS011;1015;49.756;6.994;2023-11-19T00:15:23;1.00;;;0.60;;
2021;SDS011;1015;49.756;6.994;2023-11-19T00:17:51;0.50;;;0.40;;
2021;SDS011;1015;49.756;6.994;2023-11-19T00:20:18;0.70;;;0.67;;
2021;SDS011;1015;49.756;6.994;2023-11-19T00:22:49;2.50;;;0.50;;
2021;SDS011;1015;49.756;6.994;2023-11-19T00:28:07;0.40;;;0.30;;
2021;SDS011;1015;49.756;6.994;2023-11-19T00:30:34;0.80;;;0.43;;
2021;SDS011;1015;49.756;6.994;2023-11-19T00:33:01;0.80;;;0.70;;
2021;SDS011;1015;49.756;6.994;2023-11-19T00:35:28;0.70;;;0.43;;
2021;SDS011;1015;49.756;6.994;2023-11-19T00:37:56;0.90;;;0.70;;
2021;SDS011;1015;49.756;6.994;2023-11-19T00:40:24;0.40;;;0.40;;
2021;SDS011;1015;49.756;6.994;2023-11-19T00:42:51;0.40;;;0.40;;
2021;SDS011;1015;49.756;6.994;2023-11-19T00:45:19;0.80;;;0.30;;
2021;SDS011;1015;49.756;6.994;2023-11-19T00:47:46;0.50;;;0.50;;
2021;SDS011;1015;49.756;6.994;2023-11-19T00:50:13;0.40;;;0.40;;
2021;SDS011;1015;49.756;6.994;2023-11-19T00:52:41;0.50;;;0.40;;
2021;SDS011;1015;49.756;6.994;2023-11-19T00:55:08;0.70;;;0.40;;
2021;SDS011;1015;49.756;6.994;2023-11-19T00:57:36;0.40;;;0.30;;
2021;SDS011;1015;49.756;6.994;2023-11-19T01:00:04;0.60;;;0.40;;
2021;SDS011;1015;49.756;6.994;2023-11-19T01:02:35;1.40;;;0.40;;
2021;SDS011;1015;49.756;6.994;2023-11-19T01:05:03;0.60;;;0.40;;
2021;SDS011;1015;49.756;6.994;2023-11-19T01:07:30;1.00;;;0.30;;
2021;SDS011;1015;49.756;6.994;2023-11-19T01:12:46;1.00;;;0.40;;
2021;SDS011;1015;49.756;6.994;2023-11-19T01:15:13;0.40;;;0.40;;
2021;SDS011;1015;49.756;6.994;2023-11-19T01:17:41;0.50;;;0.40;;
2021;SDS011;1015;49.756;6.994;2023-11-19T01:20:09;0.50;;;0.40;;
2021;SDS011;1015;49.756;6.994;2023-11-19T01:22:38;0.50;;;0.50;;
2021;SDS011;1015;49.756;6.994;2023-11-19T01:25:05;1.10;;;0.50;;
2021;SDS011;1015;49.756;6.994;2023-11-19T01:27:33;4.00;;;0.60;;
2021;SDS011;1015;49.756;6.994;2023-11-19T01:30:00;0.97;;;0.80;;
2021;SDS011;1015;49.756;6.994;2023-11-19T01:32:31;0.50;;;0.50;;
2021;SDS011;1015;49.756;6.994;2023-11-19T01:34:59;3.30;;;0.53;;
2021;SDS011;1015;49.756;6.994;2023-11-19T01:37:26;0.53;;;0.53;;
2021;SDS011;1015;49.756;6.994;2023-11-19T01:39:54;0.50;;;0.50;;
2021;SDS011;1015;49.756;6.994;2023-11-19T01:42:21;0.50;;;0.50;;
2021;SDS011;1015;49.756;6.994;2023-11-19T01:47:55;0.40;;;0.40;;
2021;SDS011;1015;49.756;6.994;2023-11-19T01:50:24;0.90;;;0.60;;
2021;SDS011;1015;49.756;6.994;2023-11-19T01:52:52;0.80;;;0.80;;
2021;SDS011;1015;49.756;6.994;2023-11-19T01:55:19;0.70;;;0.70;;
2021;SDS011;1015;49.756;6.994;2023-11-19T01:57:47;0.80;;;0.70;;
2021;SDS011;1015;49.756;6.994;2023-11-19T02:00:14;0.77;;;0.77;;
2021;SDS011;1015;49.756;6.994;2023-11-19T02:02:42;0.80;;;0.80;;
2021;SDS011;1015;49.756;6.994;2023-11-19T02:05:10;1.10;;;1.00;;
2021;SDS011;1015;49.756;6.994;2023-11-19T02:07:39;1.00;;;0.60;;
2021;SDS011;1015;49.756;6.994;2023-11-19T02:10:06;1.77;;;0.80;;
2021;SDS011;1015;49.756;6.994;2023-11-19T02:12:37;0.93;;;0.90;;
2021;SDS011;1015;49.756;6.994;2023-11-19T02:15:08;1.47;;;1.10;;
2021;SDS011;1015;49.756;6.994;2023-11-19T02:17:35;2.23;;;1.20;;
2021;SDS011;1015;49.756;6.994;2023-11-19T02:20:02;1.40;;;1.20;;
2021;SDS011;1015;49.756;6.994;2023-11-19T02:22:31;1.63;;;1.20;;
2021;SDS011;1015;49.756;6.994;2023-11-19T02:25:00;1.90;;;1.27;;
2021;SDS011;1015;49.756;6.994;2023-11-19T02:27:39;1.40;;;1.30;;
2021;SDS011;1015;49.756;6.994;2023-11-19T02:30:06;1.20;;;1.10;;
2021;SDS011;1015;49.756;6.994;2023-11-19T02:32:34;1.30;;;1.20;;
2021;SDS011;1015;49.756;6.994;2023-11-19T02:35:05;1.80;;;1.30;;
2021;SDS011;1015;49.756;6.994;2023-11-19T02:37:32;2.37;;;1.73;;
2021;SDS011;1015;49.756;6.994;2023-11-19T02:40:00;1.50;;;1.40;;
2021;SDS011;1015;49.756;6.994;2023-11-19T02:42:28;2.80;;;1.70;;
2021;SDS011;1015;49.756;6.994;2023-11-19T02:44:56;2.50;;;1.80;;
2021;SDS011;1015;49.756;6.994;2023-11-19T02:47:23;2.40;;;2.07;;
2021;SDS011;1015;49.756;6.994;2023-11-19T02:49:51;2.90;;;2.10;;
2021;SDS011;1015;49.756;6.994;2023-11-19T02:52:18;3.00;;;2.13;;
2021;SDS011;1015;49.756;6.994;2023-11-19T02:54:45;2.43;;;2.00;;
2021;SDS011;1015;49.756;6.994;2023-11-19T02:57:12;2.30;;;1.90;;
2021;SDS011;1015;49.756;6.994;2023-11-19T02:59:39;2.30;;;1.70;;
2021;SDS011;1015;49.756;6.994;2023-11-19T03:02:10;1.80;;;1.70;;
2021;SDS011;1015;49.756;6.994;2023-11-19T03:04:37;1.60;;;1.50;;
2021;SDS011;1015;49.756;6.994;2023-11-19T03:07:04;2.30;;;1.43;;
2021;SDS011;1015;49.756;6.994;2023-11-19T03:09:32;2.03;;;1.40;;
2021;SDS011;1015;49.756;6.994;2023-11-19T03:12:00;1.70;;;1.33;;
2021;SDS011;1015;49.756;6.994;2023-11-19T03:14:29;2.07;;;1.70;;
2021;SDS011;1015;49.756;6.994;2023-11-19T03:16:57;2.50;;;1.63;;
2021;SDS011;1015;49.756;6.994;2023-11-19T03:19:26;2.17;;;1.90;;
2021;SDS011;1015;49.756;6.994;2023-11-19T03:21:53;2.90;;;2.13;;
2021;SDS011;1015;49.756;6.994;2023-11-19T03:24:20;2.40;;;1.90;;
2021;SDS011;1015;49.756;6.994;2023-11-19T03:26:47;2.40;;;2.20;;
2021;SDS011;1015;49.756;6.994;2023-11-19T03:29:15;4.40;;;1.90;;
2021;SDS011;1015;49.756;6.994;2023-11-19T03:31:42;2.10;;;1.47;;
2021;SDS011;1015;49.756;6.994;2023-11-19T03:34:09;1.40;;;1.30;;
2021;SDS011;1015;49.756;6.994;2023-11-19T03:36:38;2.40;;;1.60;;
2021;SDS011;1015;49.756;6.994;2023-11-19T03:39:05;1.60;;;1.50;;
2021;SDS011;1015;49.756;6.994;2023-11-19T03:41:33;1.40;;;1.30;;
2021;SDS011;1015;49.756;6.994;2023-11-19T03:44:00;1.77;;;1.60;;
2021;SDS011;1015;49.756;6.994;2023-11-19T03:46:27;1.50;;;1.30;;
2021;SDS011;1015;49.756;6.994;2023-11-19T03:48:55;1.80;;;1.30;;
2021;SDS011;1015;49.756;6.994;2023-11-19T03:51:22;1.07;;;1.00;;
2021;SDS011;1015;49.756;6.994;2023-11-19T03:53:50;0.90;;;0.90;;
2021;SDS011;1015;49.756;6.994;2023-11-19T03:56:17;2.22;;;0.90;;
2021;SDS011;1015;49.756;6.994;2023-11-19T03:58:46;1.37;;;0.90;;
2021;SDS011;1015;49.756;6.994;2023-11-19T04:01:13;1.20;;;1.10;;
2021;SDS011;1015;49.756;6.994;2023-11-19T04:03:40;1.57;;;1.47;;
2021;SDS011;1015;49.756;6.994;2023-11-19T04:06:07;3.90;;;1.90;;
2021;SDS011;1015;49.756;6.994;2023-11-19T04:08:34;1.98;;;1.88;;
2021;SDS011;1015;49.756;6.994;2023-11-19T04:11:03;2.43;;;2.00;;
2021;SDS011;1015;49.756;6.994;2023-11-19T04:13:31;2.53;;;1.70;;
2021;SDS011;1015;49.756;6.994;2023-11-19T04:15:58;2.00;;;1.80;;
2021;SDS011;1015;49.756;6.994;2023-11-19T04:18:25;2.50;;;1.70;;
2021;SDS011;1015;49.756;6.994;2023-11-19T04:20:52;2.40;;;2.20;;
2021;SDS011;1015;49.756;6.994;2023-11-19T04:23:19;9.10;;;2.07;;
2021;SDS011;1015;49.756;6.994;2023-11-19T04:25:46;2.27;;;2.10;;
2021;SDS011;1015;49.756;6.994;2023-11-19T04:28:15;2.47;;;2.27;;
2021;SDS011;1015;49.756;6.994;2023-11-19T04:30:42;2.40;;;2.20;;
2021;SDS011;1015;49.756;6.994;2023-11-19T04:33:09;2.47;;;2.10;;
2021;SDS011;1015;49.756;6.994;2023-11-19T04:35:37;2.60;;;2.30;;
2021;SDS011;1015;49.756;6.994;2023-11-19T04:38:04;4.43;;;2.73;;
2021;SDS011;1015;49.756;6.994;2023-11-19T04:40:31;2.47;;;2.27;;
2021;SDS011;1015;49.756;6.994;2023-11-19T04:42:58;2.45;;;2.00;;
2021;SDS011;1015;49.756;6.994;2023-11-19T04:45:27;1.77;;;1.67;;
2021;SDS011;1015;49.756;6.994;2023-11-19T04:47:54;1.50;;;1.40;;
2021;SDS011;1015;49.756;6.994;2023-11-19T04:50:21;1.87;;;1.50;;
2021;SDS011;1015;49.756;6.994;2023-11-19T04:52:48;1.60;;;1.10;;
2021;SDS011;1015;49.756;6.994;2023-11-19T04:55:15;1.57;;;1.47;;
2021;SDS011;1015;49.756;6.994;2023-11-19T04:57:43;3.37;;;1.80;;
2021;SDS011;1015;49.756;6.994;2023-11-19T05:00:13;2.70;;;1.50;;
2021;SDS011;1015;49.756;6.994;2023-11-19T05:02:42;1.90;;;1.73;;
2021;SDS011;1015;49.756;6.994;2023-11-19T05:05:09;2.92;;;1.60;;
2021;SDS011;1015;49.756;6.994;2023-11-19T05:07:36;3.30;;;1.80;;
2021;SDS011;1015;49.756;6.994;2023-11-19T05:10:04;3.63;;;1.50;;
2021;SDS011;1015;49.756;6.994;2023-11-19T05:12:31;4.40;;;1.50;;
2021;SDS011;1015;49.756;6.994;2023-11-19T05:14:59;1.30;;;1.20;;
2021;SDS011;1015;49.756;6.994;2023-11-19T05:17:26;2.20;;;1.60;;
2021;SDS011;1015;49.756;6.994;2023-11-19T05:19:54;1.60;;;1.37;;
2021;SDS011;1015;49.756;6.994;2023-11-19T05:22:21;1.80;;;1.30;;
2021;SDS011;1015;49.756;6.994;2023-11-19T05:24:48;2.60;;;1.60;;
2021;SDS011;1015;49.756;6.994;2023-11-19T05:27:15;2.10;;;1.90;;
2021;SDS011;1015;49.756;6.994;2023-11-19T05:29:42;3.90;;;1.70;;
2021;SDS011;1015;49.756;6.994;2023-11-19T05:32:10;2.10;;;1.83;;
2021;SDS011;1015;49.756;6.994;2023-11-19T05:34:37;2.63;;;2.20;;
2021;SDS011;1015;49.756;6.994;2023-11-19T05:37:05;2.20;;;2.00;;
2021;SDS011;1015;49.756;6.994;2023-11-19T05:39:35;3.20;;;2.40;;
2021;SDS011;1015;49.756;6.994;2023-11-19T05:42:03;3.03;;;2.23;;
2021;SDS011;1015;49.756;6.994;2023-11-19T05:44:30;2.53;;;2.33;;
2021;SDS011;1015;49.756;6.994;2023-11-19T05:46:57;3.77;;;2.80;;
2021;SDS011;1015;49.756;6.994;2023-11-19T05:49:24;3.93;;;2.93;;
2021;SDS011;1015;49.756;6.994;2023-11-19T05:51:51;5.23;;;3.37;;
2021;SDS011;1015;49.756;6.994;2023-11-19T05:54:34;4.40;;;3.10;;
2021;SDS011;1015;49.756;6.994;2023-11-19T05:57:03;4.60;;;3.13;;
2021;SDS011;1015;49.756;6.994;2023-11-19T05:59:30;7.33;;;3.30;;
2021;SDS011;1015;49.756;6.994;2023-11-19T06:01:58;4.23;;;3.43;;
2021;SDS011;1015;49.756;6.994;2023-11-19T06:04:25;5.10;;;3.33;;
2021;SDS011;1015;49.756;6.994;2023-11-19T06:06:52;3.50;;;2.63;;
2021;SDS011;1015;49.756;6.994;2023-11-19T06:09:20;2.80;;;2.43;;
2021;SDS011;1015;49.756;6.994;2023-11-19T06:11:49;5.43;;;2.60;;
2021;SDS011;1015;49.756;6.994;2023-11-19T06:14:16;5.50;;;2.57;;
2021;SDS011;1015;49.756;6.994;2023-11-19T06:16:42;3.53;;;2.60;;
2021;SDS011;1015;49.756;6.994;2023-11-19T06:19:09;3.83;;;2.70;;
2021;SDS011;1015;49.756;6.994;2023-11-19T06:21:37;5.53;;;2.70;;
2021;SDS011;1015;49.756;6.994;2023-11-19T06:24:04;2.90;;;2.53;;
2021;SDS011;1015;49.756;6.994;2023-11-19T06:26:31;5.37;;;2.50;;
2021;SDS011;1015;49.756;6.994;2023-11-19T06:29:00;4.00;;;2.33;;
2021;SDS011;1015;49.756;6.994;2023-11-19T06:31:27;5.23;;;2.90;;
2021;SDS011;1015;49.756;6.994;2023-11-19T06:33:54;3.70;;;2.23;;
2021;SDS011;1015;49.756;6.994;2023-11-19T06:36:21;4.43;;;2.50;;
2021;SDS011;1015;49.756;6.994;2023-11-19T06:38:48;7.07;;;2.70;;
2021;SDS011;1015;49.756;6.994;2023-11-19T06:41:15;6.03;;;2.70;;
2021;SDS011;1015;49.756;6.994;2023-11-19T06:43:42;4.17;;;2.37;;
2021;SDS011;1015;49.756;6.994;2023-11-19T06:46:15;3.55;;;2.55;;
2021;SDS011;1015;49.756;6.994;2023-11-19T06:48:43;2.97;;;1.90;;
2021;SDS011;1015;49.756;6.994;2023-11-19T06:51:10;4.07;;;2.70;;
2021;SDS011;1015;49.756;6.994;2023-11-19T06:53:37;4.60;;;2.50;;
2021;SDS011;1015;49.756;6.994;2023-11-19T06:56:06;2.60;;;2.10;;
2021;SDS011;1015;49.756;6.994;2023-11-19T06:58:43;6.17;;;2.80;;
2021;SDS011;1015;49.756;6.994;2023-11-19T07:01:10;5.53;;;2.63;;
2021;SDS011;1015;49.756;6.994;2023-11-19T07:03:39;2.70;;;2.10;;
2021;SDS011;1015;49.756;6.994;2023-11-19T07:06:06;4.00;;;2.30;;
2021;SDS011;1015;49.756;6.994;2023-11-19T07:08:33;5.33;;;2.70;;
2021;SDS011;1015;49.756;6.994;2023-11-19T07:11:01;5.80;;;2.87;;
2021;SDS011;1015;49.756;6.994;2023-11-19T07:13:28;3.53;;;2.70;;
2021;SDS011;1015;49.756;6.994;2023-11-19T07:15:56;2.57;;;2.37;;
2021;SDS011;1015;49.756;6.994;2023-11-19T07:18:23;4.77;;;2.73;;
2021;SDS011;1015;49.756;6.994;2023-11-19T07:20:52;3.33;;;2.50;;
2021;SDS011;1015;49.756;6.994;2023-11-19T07:23:19;4.43;;;2.60;;
2021;SDS011;1015;49.756;6.994;2023-11-19T07:25:46;6.43;;;2.80;;
2021;SDS011;1015;49.756;6.994;2023-11-19T07:28:15;4.20;;;2.80;;
2021;SDS011;1015;49.756;6.994;2023-11-19T07:30:42;4.37;;;2.53;;
2021;SDS011;1015;49.756;6.994;2023-11-19T07:33:09;8.13;;;2.80;;
2021;SDS011;1015;49.756;6.994;2023-11-19T07:35:36;3.50;;;2.73;;
2021;SDS011;1015;49.756;6.994;2023-11-19T07:38:05;4.43;;;2.60;;
2021;SDS011;1015;49.756;6.994;2023-11-19T07:40:32;7.27;;;3.30;;
2021;SDS011;1015;49.756;6.994;2023-11-19T07:43:00;7.40;;;2.73;;
2021;SDS011;1015;49.756;6.994;2023-11-19T07:45:27;4.37;;;2.40;;
2021;SDS011;1015;49.756;6.994;2023-11-19T07:47:54;3.83;;;2.33;;
2021;SDS011;1015;49.756;6.994;2023-11-19T07:50:21;4.73;;;2.60;;
2021;SDS011;1015;49.756;6.994;2023-11-19T07:52:48;3.83;;;2.20;;
2021;SDS011;1015;49.756;6.994;2023-11-19T07:55:16;3.40;;;2.07;;
2021;SDS011;1015;49.756;6.994;2023-11-19T07:57:44;5.80;;;2.20;;
2021;SDS011;1015;49.756;6.994;2023-11-19T08:00:12;4.80;;;2.17;;
2021;SDS011;1015;49.756;6.994;2023-11-19T08:02:39;5.60;;;2.50;;
2021;SDS011;1015;49.756;6.994;2023-11-19T08:05:07;5.50;;;2.40;;
2021;SDS011;1015;49.756;6.994;2023-11-19T08:07:34;5.90;;;2.57;;
2021;SDS011;1015;49.756;6.994;2023-11-19T08:10:01;5.30;;;2.30;;
2021;SDS011;1015;49.756;6.994;2023-11-19T08:12:31;8.63;;;3.23;;
2021;SDS011;1015;49.756;6.994;2023-11-19T08:15:00;5.40;;;2.47;;
2021;SDS011;1015;49.756;6.994;2023-11-19T08:17:27;4.90;;;2.47;;
2021;SDS011;1015;49.756;6.994;2023-11-19T08:19:54;4.23;;;2.20;;
2021;SDS011;1015;49.756;6.994;2023-11-19T08:22:21;5.73;;;2.57;;
2021;SDS011;1015;49.756;6.994;2023-11-19T08:24:48;4.07;;;2.10;;
2021;SDS011;1015;49.756;6.994;2023-11-19T08:27:15;3.20;;;2.03;;
2021;SDS011;1015;49.756;6.994;2023-11-19T08:29:44;4.90;;;2.43;;
2021;SDS011;1015;49.756;6.994;2023-11-19T08:32:11;5.70;;;2.20;;
2021;SDS011;1015;49.756;6.994;2023-11-19T08:34:38;6.47;;;2.70;;
2021;SDS011;1015;49.756;6.994;2023-11-19T08:37:05;4.50;;;2.07;;
2021;SDS011;1015;49.756;6.994;2023-11-19T08:39:32;7.33;;;2.33;;
2021;SDS011;1015;49.756;6.994;2023-11-19T08:42:02;6.50;;;2.10;;
2021;SDS011;1015;49.756;6.994;2023-11-19T08:44:30;6.35;;;2.35;;
2021;SDS011;1015;49.756;6.994;2023-11-19T08:46:59;3.60;;;2.30;;
2021;SDS011;1015;49.756;6.994;2023-11-19T08:49:26;2.50;;;1.87;;
2021;SDS011;1015;49.756;6.994;2023-11-19T08:51:53;3.60;;;1.90;;
2021;SDS011;1015;49.756;6.994;2023-11-19T08:54:20;5.40;;;2.57;;
2021;SDS011;1015;49.756;6.994;2023-11-19T08:56:48;5.73;;;2.27;;
2021;SDS011;1015;49.756;6.994;2023-11-19T08:59:15;4.23;;;2.10;;
2021;SDS011;1015;49.756;6.994;2023-11-19T09:01:43;3.50;;;1.85;;
2021;SDS011;1015;49.756;6.994;2023-11-19T09:04:12;3.80;;;2.30;;
2021;SDS011;1015;49.756;6.994;2023-11-19T09:06:39;5.80;;;1.93;;
2021;SDS011;1015;49.756;6.994;2023-11-19T09:09:07;8.13;;;2.00;;
2021;SDS011;1015;49.756;6.994;2023-11-19T09:11:34;6.57;;;2.33;;
2021;SDS011;1015;49.756;6.994;2023-11-19T09:14:02;5.47;;;2.10;;
2021;SDS011;1015;49.756;6.994;2023-11-19T09:16:29;2.63;;;1.90;;
2021;SDS011;1015;49.756;6.994;2023-11-19T09:18:57;3.83;;;2.00;;
2021;SDS011;1015;49.756;6.994;2023-11-19T09:21:26;4.67;;;2.30;;
2021;SDS011;1015;49.756;6.994;2023-11-19T09:23:54;8.60;;;2.47;;
2021;SDS011;1015;49.756;6.994;2023-11-19T09:26:21;3.40;;;2.20;;
2021;SDS011;1015;49.756;6.994;2023-11-19T09:28:48;6.20;;;2.33;;
2021;SDS011;1015;49.756;6.994;2023-11-19T09:31:16;5.40;;;2.17;;
2021;SDS011;1015;49.756;6.994;2023-11-19T09:33:43;4.80;;;1.90;;
2021;SDS011;1015;49.756;6.994;2023-11-19T09:36:11;5.60;;;2.50;;
2021;SDS011;1015;49.756;6.994;2023-11-19T09:38:53;5.40;;;2.23;;
2021;SDS011;1015;49.756;6.994;2023-11-19T09:41:20;4.80;;;2.10;;
2021;SDS011;1015;49.756;6.994;2023-11-19T09:43:47;4.53;;;2.30;;
2021;SDS011;1015;49.756;6.994;2023-11-19T09:46:15;5.10;;;2.53;;
2021;SDS011;1015;49.756;6.994;2023-11-19T09:48:43;6.93;;;2.37;;
2021;SDS011;1015;49.756;6.994;2023-11-19T09:51:13;3.30;;;2.30;;
2021;SDS011;1015;49.756;6.994;2023-11-19T09:53:40;5.50;;;2.50;;
2021;SDS011;1015;49.756;6.994;2023-11-19T09:56:09;3.77;;;2.30;;
2021;SDS011;1015;49.756;6.994;2023-11-19T09:58:36;6.72;;;1.98;;
2021;SDS011;1015;49.756;6.994;2023-11-19T10:01:05;4.72;;;1.88;;
2021;SDS011;1015;49.756;6.994;2023-11-19T10:03:35;4.77;;;1.60;;
2021;SDS011;1015;49.756;6.994;2023-11-19T10:09:07;5.07;;;2.00;;
2021;SDS011;1015;49.756;6.994;2023-11-19T10:11:36;4.10;;;1.87;;
2021;SDS011;1015;49.756;6.994;2023-11-19T10:14:03;9.37;;;2.10;;
2021;SDS011;1015;49.756;6.994;2023-11-19T10:16:30;6.00;;;1.93;;
2021;SDS011;1015;49.756;6.994;2023-11-19T10:18:57;5.73;;;1.90;;
2021;SDS011;1015;49.756;6.994;2023-11-19T10:21:24;4.77;;;2.10;;
2021;SDS011;1015;49.756;6.994;2023-11-19T10:23:53;4.03;;;1.63;;
2021;SDS011;1015;49.756;6.994;2023-11-19T10:26:22;9.20;;;2.00;;
2021;SDS011;1015;49.756;6.994;2023-11-19T10:28:51;4.70;;;2.00;;
2021;SDS011;1015;49.756;6.994;2023-11-19T10:31:19;4.50;;;1.77;;
2021;SDS011;1015;49.756;6.994;2023-11-19T10:33:49;6.93;;;2.03;;
2021;SDS011;1015;49.756;6.994;2023-11-19T10:36:17;7.70;;;1.70;;
2021;SDS011;1015;49.756;6.994;2023-11-19T10:38:51;5.53;;;1.97;;
2021;SDS011;1015;49.756;6.994;2023-11-19T10:41:26;4.33;;;1.73;;
2021;SDS011;1015;49.756;6.994;2023-11-19T10:43:54;9.00;;;2.00;;
2021;SDS011;1015;49.756;6.994;2023-11-19T10:46:21;6.53;;;2.10;;
2021;SDS011;1015;49.756;6.994;2023-11-19T10:48:49;9.37;;;2.40;;
2021;SDS011;1015;49.756;6.994;2023-11-19T10:51:18;4.00;;;1.77;;
2021;SDS011;1015;49.756;6.994;2023-11-19T10:53:49;7.37;;;2.10;;
2021;SDS011;1015;49.756;6.994;2023-11-19T10:56:16;6.60;;;1.90;;
2021;SDS011;1015;49.756;6.994;2023-11-19T10:58:44;4.37;;;1.80;;
2021;SDS011;1015;49.756;6.994;2023-11-19T11:01:16;6.00;;;1.80;;
2021;SDS011;1015;49.756;6.994;2023-11-19T11:03:46;7.22;;;2.00;;
2021;SDS011;1015;49.756;6.994;2023-11-19T11:06:15;8.90;;;2.10;;
2021;SDS011;1015;49.756;6.994;2023-11-19T11:08:42;7.83;;;1.73;;
2021;SDS011;1015;49.756;6.994;2023-11-19T11:11:09;3.20;;;1.50;;
2021;SDS011;1015;49.756;6.994;2023-11-19T11:13:41;8.70;;;2.00;;
2021;SDS011;1015;49.756;6.994;2023-11-19T11:16:09;5.30;;;1.80;;
2021;SDS011;1015;49.756;6.994;2023-11-19T11:18:37;5.80;;;1.90;;
2021;SDS011;1015;49.756;6.994;2023-11-19T11:21:05;11.60;;;2.50;;
2021;SDS011;1015;49.756;6.994;2023-11-19T11:26:31;5.60;;;1.73;;
2021;SDS011;1015;49.756;6.994;2023-11-19T11:29:03;6.77;;;2.00;;
2021;SDS011;1015;49.756;6.994;2023-11-19T11:31:34;6.70;;;2.30;;
2021;SDS011;1015;49.756;6.994;2023-11-19T11:34:09;5.50;;;1.77;;
2021;SDS011;1015;49.756;6.994;2023-11-19T11:36:44;5.00;;;1.90;;
2021;SDS011;1015;49.756;6.994;2023-11-19T11:39:15;9.37;;;2.20;;
2021;SDS011;1015;49.756;6.994;2023-11-19T11:41:44;5.03;;;2.20;;
2021;SDS011;1015;49.756;6.994;2023-11-19T11:44:11;7.03;;;2.00;;
2021;SDS011;1015;49.756;6.994;2023-11-19T11:46:53;6.73;;;2.20;;
2021;SDS011;1015;49.756;6.994;2023-11-19T11:49:27;5.80;;;2.08;;
2021;SDS011;1015;49.756;6.994;2023-11-19T11:52:00;10.25;;;2.10;;
2021;SDS011;1015;49.756;6.994;2023-11-19T11:54:26;7.70;;;2.10;;
2021;SDS011;1015;49.756;6.994;2023-11-19T11:57:06;5.90;;;2.03;;
2021;SDS011;1015;49.756;6.994;2023-11-19T11:59:41;5.20;;;2.27;;
2021;SDS011;1015;49.756;6.994;2023-11-19T12:02:11;3.63;;;2.20;;
2021;SDS011;1015;49.756;6.994;2023-11-19T12:04:40;10.47;;;2.80;;
2021;SDS011;1015;49.756;6.994;2023-11-19T12:07:08;8.77;;;2.40;;
2021;SDS011;1015;49.756;6.994;2023-11-19T12:09:36;6.40;;;1.90;;
2021;SDS011;1015;49.756;6.994;2023-11-19T12:12:12;4.97;;;2.10;;
2021;SDS011;1015;49.756;6.994;2023-11-19T12:20:17;5.63;;;1.80;;
2021;SDS011;1015;49.756;6.994;2023-11-19T12:22:45;2.40;;;1.57;;
2021;SDS011;1015;49.756;6.994;2023-11-19T12:25:14;7.40;;;1.83;;
2021;SDS011;1015;49.756;6.994;2023-11-19T12:27:43;7.33;;;2.30;;
2021;SDS011;1015;49.756;6.994;2023-11-19T12:30:10;5.50;;;1.83;;
2021;SDS011;1015;49.756;6.994;2023-11-19T12:32:38;6.40;;;2.17;;
2021;SDS011;1015;49.756;6.994;2023-11-19T12:35:06;10.20;;;2.50;;
2021;SDS011;1015;49.756;6.994;2023-11-19T12:37:39;4.43;;;1.87;;
2021;SDS011;1015;49.756;6.994;2023-11-19T12:40:16;6.93;;;2.00;;
2021;SDS011;1015;49.756;6.994;2023-11-19T12:42:44;7.70;;;2.08;;
2021;SDS011;1015;49.756;6.994;2023-11-19T12:45:11;8.40;;;2.57;;
2021;SDS011;1015;49.756;6.994;2023-11-19T12:47:38;6.30;;;1.93;;
2021;SDS011;1015;49.756;6.994;2023-11-19T12:50:06;5.23;;;2.00;;
2021;SDS011;1015;49.756;6.994;2023-11-19T12:52:34;9.67;;;2.30;;
2021;SDS011;1015;49.756;6.994;2023-11-19T12:55:02;7.53;;;2.40;;
2021;SDS011;1015;49.756;6.994;2023-11-19T12:57:40;7.00;;;2.00;;
2021;SDS011;1015;49.756;6.994;2023-11-19T13:00:17;5.50;;;2.10;;
2021;SDS011;1015;49.756;6.994;2023-11-19T13:02:46;5.97;;;1.73;;
2021;SDS011;1015;49.756;6.994;2023-11-19T13:05:21;4.03;;;1.63;;
2021;SDS011;1015;49.756;6.994;2023-11-19T13:07:48;4.73;;;1.60;;
2021;SDS011;1015;49.756;6.994;2023-11-19T13:10:16;6.07;;;1.60;;
2021;SDS011;1015;49.756;6.994;2023-11-19T13:12:43;4.07;;;1.80;;
2021;SDS011;1015;49.756;6.994;2023-11-19T13:15:22;8.70;;;2.10;;
2021;SDS011;1015;49.756;6.994;2023-11-19T13:17:50;6.63;;;2.10;;
2021;SDS011;1015;49.756;6.994;2023-11-19T13:20:18;5.23;;;2.07;;
2021;SDS011;1015;49.756;6.994;2023-11-19T13:22:53;9.30;;;2.53;;
2021;SDS011;1015;49.756;6.994;2023-11-19T13:25:21;4.23;;;1.50;;
2021;SDS011;1015;49.756;6.994;2023-11-19T13:27:48;5.80;;;1.90;;
2021;SDS011;1015;49.756;6.994;2023-11-19T13:30:16;6.73;;;2.00;;
2021;SDS011;1015;49.756;6.994;2023-11-19T13:32:43;5.37;;;1.67;;
2021;SDS011;1015;49.756;6.994;2023-11-19T13:35:11;4.53;;;1.73;;
2021;SDS011;1015;49.756;6.994;2023-11-19T13:37:38;4.97;;;1.90;;
2021;SDS011;1015;49.756;6.994;2023-11-19T13:40:06;8.83;;;2.17;;
2021;SDS011;1015;49.756;6.994;2023-11-19T13:42:36;9.43;;;1.65;;
2021;SDS011;1015;49.756;6.994;2023-11-19T13:45:06;5.90;;;1.97;;
2021;SDS011;1015;49.756;6.994;2023-11-19T13:47:35;3.38;;;1.60;;
2021;SDS011;1015;49.756;6.994;2023-11-19T13:50:06;7.10;;;2.10;;
2021;SDS011;1015;49.756;6.994;2023-11-19T13:52:34;5.03;;;1.83;;
2021;SDS011;1015;49.756;6.994;2023-11-19T13:55:02;4.83;;;2.07;;
2021;SDS011;1015;49.756;6.994;2023-11-19T13:57:30;4.10;;;1.80;;
2021;SDS011;1015;49.756;6.994;2023-11-19T13:59:58;5.03;;;2.03;;
2021;SDS011;1015;49.756;6.994;2023-11-19T14:02:25;5.33;;;1.47;;
2021;SDS011;1015;49.756;6.994;2023-11-19T14:04:52;7.30;;;2.10;;
2021;SDS011;1015;49.756;6.994;2023-11-19T14:07:20;4.23;;;1.70;;
2021;SDS011;1015;49.756;6.994;2023-11-19T14:09:47;7.90;;;1.70;;
2021;SDS011;1015;49.756;6.994;2023-11-19T14:12:15;5.60;;;1.97;;
2021;SDS011;1015;49.756;6.994;2023-11-19T14:14:42;4.73;;;1.50;;
2021;SDS011;1015;49.756;6.994;2023-11-19T14:17:10;5.27;;;1.77;;
2021;SDS011;1015;49.756;6.994;2023-11-19T14:19:37;4.77;;;1.90;;
2021;SDS011;1015;49.756;6.994;2023-11-19T14:22:05;3.73;;;1.67;;
2021;SDS011;1015;49.756;6.994;2023-11-19T14:24:33;6.40;;;1.70;;
2021;SDS011;1015;49.756;6.994;2023-11-19T14:27:00;3.10;;;1.70;;
2021;SDS011;1015;49.756;6.994;2023-11-19T14:29:27;7.03;;;2.10;;
2021;SDS011;1015;49.756;6.994;2023-11-19T14:31:55;6.27;;;2.00;;
2021;SDS011;1015;49.756;6.994;2023-11-19T14:34:25;4.73;;;1.50;;
2021;SDS011;1015;49.756;6.994;2023-11-19T14:36:52;7.03;;;2.07;;
2021;SDS011;1015;49.756;6.994;2023-11-19T14:39:19;4.80;;;1.63;;
2021;SDS011;1015;49.756;6.994;2023-11-19T14:41:47;8.50;;;2.30;;
2021;SDS011;1015;49.756;6.994;2023-11-19T14:44:14;7.73;;;1.83;;
2021;SDS011;1015;49.756;6.994;2023-11-19T14:46:42;9.10;;;1.73;;
2021;SDS011;1015;49.756;6.994;2023-11-19T14:49:09;4.73;;;1.70;;
2021;SDS011;1015;49.756;6.994;2023-11-19T14:51:38;4.30;;;1.57;;
2021;SDS011;1015;49.756;6.994;2023-11-19T14:54:05;6.57;;;2.10;;
2021;SDS011;1015;49.756;6.994;2023-11-19T14:56:32;5.07;;;1.70;;
2021;SDS011;1015;49.756;6.994;2023-11-19T14:58:59;4.53;;;1.83;;
2021;SDS011;1015;49.756;6.994;2023-11-19T15:01:26;5.93;;;2.13;;
2021;SDS011;1015;49.756;6.994;2023-11-19T15:03:55;4.50;;;1.50;;
2021;SDS011;1015;49.756;6.994;2023-11-19T15:06:24;7.90;;;2.07;;
2021;SDS011;1015;49.756;6.994;2023-11-19T15:08:53;5.30;;;2.00;;
2021;SDS011;1015;49.756;6.994;2023-11-19T15:11:21;5.10;;;1.80;;
2021;SDS011;1015;49.756;6.994;2023-11-19T15:13:48;5.13;;;1.93;;
2021;SDS011;1015;49.756;6.994;2023-11-19T15:16:16;6.30;;;2.70;;
2021;SDS011;1015;49.756;6.994;2023-11-19T15:18:49;5.83;;;1.70;;
2021;SDS011;1015;49.756;6.994;2023-11-19T15:21:17;4.23;;;1.63;;
2021;SDS011;1015;49.756;6.994;2023-11-19T15:23:44;6.47;;;2.10;;
2021;SDS011;1015;49.756;6.994;2023-11-19T15:26:12;9.80;;;2.87;;
2021;SDS011;1015;49.756;6.994;2023-11-19T15:31:43;9.03;;;2.17;;
2021;SDS011;1015;49.756;6.994;2023-11-19T15:34:10;8.03;;;2.13;;
2021;SDS011;1015;49.756;6.994;2023-11-19T15:36:37;9.50;;;2.17;;
2021;SDS011;1015;49.756;6.994;2023-11-19T15:39:04;8.83;;;2.20;;
2021;SDS011;1015;49.756;6.994;2023-11-19T15:41:33;8.53;;;2.43;;
2021;SDS011;1015;49.756;6.994;2023-11-19T15:44:00;12.17;;;2.60;;